sensor_id;sensor_type;location;lat;lon;timestamp;P1;durP1;ratioP1;P2;durP2;ratioP2
49241;SDS011;35079;52.704;13.814;2023-04-19T00:00:26;6.32;;;4.00;;
49241;SDS011;35079;52.704;13.814;2023-04-19T00:02:52;6.80;;;4.32;;
49241;SDS011;35079;52.704;13.814;2023-04-19T00:05:18;8.48;;;3.70;;
49241;SDS011;35079;52.704;13.814;2023-04-19T00:07:46;7.18;;;4.00;;
49241;SDS011;35079;52.704;13.814;2023-04-19T00:10:11;8.80;;;4.13;;
49241;SDS011;35079;52.704;13.814;2023-04-19T00:12:37;8.50;;;4.07;;
49241;SDS011;35079;52.704;13.814;2023-04-19T00:15:03;9.00;;;3.95;;
49241;SDS011;35079;52.704;13.814;2023-04-19T00:17:29;8.63;;;4.50;;
49241;SDS011;35079;52.704;13.814;2023-04-19T00:19:55;7.45;;;3.92;;
49241;SDS011;35079;52.704;13.814;2023-04-19T00:22:21;7.70;;;3.72;;
49241;SDS011;35079;52.704;13.814;2023-04-19T00:24:47;8.07;;;4.28;;
49241;SDS011;35079;52.704;13.814;2023-04-19T00:27:12;7.10;;;4.03;;
49241;SDS011;35079;52.704;13.814;2023-04-19T00:29:38;6.75;;;3.70;;
49241;SDS011;35079;52.704;13.814;2023-04-19T00:32:04;6.25;;;3.67;;
49241;SDS011;35079;52.704;13.814;2023-04-19T00:34:30;6.97;;;3.50;;
49241;SDS011;35079;52.704;13.814;2023-04-19T00:36:56;8.02;;;3.80;;
49241;SDS011;35079;52.704;13.814;2023-04-19T00:39:21;4.75;;;3.38;;
49241;SDS011;35079;52.704;13.814;2023-04-19T00:41:47;6.15;;;3.30;;
49241;SDS011;35079;52.704;13.814;2023-04-19T00:44:13;5.47;;;3.15;;
49241;SDS011;35079;52.704;13.814;2023-04-19T00:46:39;8.73;;;4.30;;
49241;SDS011;35079;52.704;13.814;2023-04-19T00:49:05;5.32;;;3.47;;
49241;SDS011;35079;52.704;13.814;2023-04-19T00:51:31;6.72;;;3.70;;
49241;SDS011;35079;52.704;13.814;2023-04-19T00:54:00;8.52;;;3.78;;
49241;SDS011;35079;52.704;13.814;2023-04-19T00:56:27;8.63;;;4.03;;
49241;SDS011;35079;52.704;13.814;2023-04-19T00:58:53;4.75;;;3.65;;
49241;SDS011;35079;52.704;13.814;2023-04-19T01:01:20;8.25;;;3.63;;
49241;SDS011;35079;52.704;13.814;2023-04-19T01:03:46;7.13;;;3.45;;
49241;SDS011;35079;52.704;13.814;2023-04-19T01:06:13;8.60;;;3.90;;
49241;SDS011;35079;52.704;13.814;2023-04-19T01:08:39;7.57;;;3.70;;
49241;SDS011;35079;52.704;13.814;2023-04-19T01:11:04;5.68;;;3.47;;
49241;SDS011;35079;52.704;13.814;2023-04-19T01:13:32;6.43;;;3.85;;
49241;SDS011;35079;52.704;13.814;2023-04-19T01:15:57;6.32;;;3.92;;
49241;SDS011;35079;52.704;13.814;2023-04-19T01:18:24;9.00;;;3.90;;
49241;SDS011;35079;52.704;13.814;2023-04-19T01:20:53;6.95;;;3.65;;
49241;SDS011;35079;52.704;13.814;2023-04-19T01:23:19;7.38;;;3.70;;
49241;SDS011;35079;52.704;13.814;2023-04-19T01:25:45;5.95;;;3.75;;
49241;SDS011;35079;52.704;13.814;2023-04-19T01:28:11;8.88;;;3.78;;
49241;SDS011;35079;52.704;13.814;2023-04-19T01:30:37;7.40;;;4.22;;
49241;SDS011;35079;52.704;13.814;2023-04-19T01:33:03;8.13;;;4.18;;
49241;SDS011;35079;52.704;13.814;2023-04-19T01:35:29;7.43;;;4.47;;
49241;SDS011;35079;52.704;13.814;2023-04-19T01:37:55;11.75;;;3.97;;
49241;SDS011;35079;52.704;13.814;2023-04-19T01:40:23;8.63;;;3.78;;
49241;SDS011;35079;52.704;13.814;2023-04-19T01:42:50;7.85;;;3.55;;
49241;SDS011;35079;52.704;13.814;2023-04-19T01:45:15;6.72;;;3.20;;
49241;SDS011;35079;52.704;13.814;2023-04-19T01:47:41;7.80;;;3.50;;
49241;SDS011;35079;52.704;13.814;2023-04-19T01:50:07;10.05;;;4.10;;
49241;SDS011;35079;52.704;13.814;2023-04-19T01:52:33;5.85;;;3.50;;
49241;SDS011;35079;52.704;13.814;2023-04-19T01:54:58;7.28;;;3.70;;
49241;SDS011;35079;52.704;13.814;2023-04-19T01:57:24;7.47;;;3.63;;
49241;SDS011;35079;52.704;13.814;2023-04-19T01:59:50;4.65;;;3.10;;
49241;SDS011;35079;52.704;13.814;2023-04-19T02:02:19;5.30;;;3.22;;
49241;SDS011;35079;52.704;13.814;2023-04-19T02:04:45;6.38;;;3.63;;
49241;SDS011;35079;52.704;13.814;2023-04-19T02:07:10;5.78;;;3.70;;
49241;SDS011;35079;52.704;13.814;2023-04-19T02:09:37;7.93;;;3.65;;
49241;SDS011;35079;52.704;13.814;2023-04-19T02:12:03;5.10;;;3.40;;
49241;SDS011;35079;52.704;13.814;2023-04-19T02:14:29;5.45;;;3.17;;
49241;SDS011;35079;52.704;13.814;2023-04-19T02:16:55;8.63;;;3.45;;
49241;SDS011;35079;52.704;13.814;2023-04-19T02:19:21;7.25;;;3.30;;
49241;SDS011;35079;52.704;13.814;2023-04-19T02:21:47;5.90;;;3.53;;
49241;SDS011;35079;52.704;13.814;2023-04-19T02:24:13;8.00;;;3.72;;
49241;SDS011;35079;52.704;13.814;2023-04-19T02:26:38;5.43;;;3.30;;
49241;SDS011;35079;52.704;13.814;2023-04-19T02:29:04;6.10;;;3.70;;
49241;SDS011;35079;52.704;13.814;2023-04-19T02:31:30;4.63;;;3.42;;
49241;SDS011;35079;52.704;13.814;2023-04-19T02:33:56;6.75;;;3.55;;
49241;SDS011;35079;52.704;13.814;2023-04-19T02:36:21;5.70;;;3.45;;
49241;SDS011;35079;52.704;13.814;2023-04-19T02:38:47;6.45;;;3.25;;
49241;SDS011;35079;52.704;13.814;2023-04-19T02:41:12;6.80;;;3.30;;
49241;SDS011;35079;52.704;13.814;2023-04-19T02:43:38;8.77;;;3.17;;
49241;SDS011;35079;52.704;13.814;2023-04-19T02:46:04;5.10;;;3.05;;
49241;SDS011;35079;52.704;13.814;2023-04-19T02:48:30;5.57;;;3.20;;
49241;SDS011;35079;52.704;13.814;2023-04-19T02:50:56;5.93;;;2.90;;
49241;SDS011;35079;52.704;13.814;2023-04-19T02:53:21;7.15;;;2.75;;
49241;SDS011;35079;52.704;13.814;2023-04-19T02:55:47;4.55;;;3.10;;
49241;SDS011;35079;52.704;13.814;2023-04-19T02:58:13;5.93;;;3.10;;
49241;SDS011;35079;52.704;13.814;2023-04-19T03:00:38;3.75;;;2.78;;
49241;SDS011;35079;52.704;13.814;2023-04-19T03:03:04;5.38;;;3.00;;
49241;SDS011;35079;52.704;13.814;2023-04-19T03:05:31;4.18;;;2.67;;
49241;SDS011;35079;52.704;13.814;2023-04-19T03:07:57;6.05;;;3.05;;
49241;SDS011;35079;52.704;13.814;2023-04-19T03:10:22;5.65;;;3.13;;
49241;SDS011;35079;52.704;13.814;2023-04-19T03:12:48;4.50;;;2.42;;
49241;SDS011;35079;52.704;13.814;2023-04-19T03:15:15;8.10;;;2.83;;
49241;SDS011;35079;52.704;13.814;2023-04-19T03:17:41;5.30;;;2.85;;
49241;SDS011;35079;52.704;13.814;2023-04-19T03:20:07;4.65;;;2.72;;
49241;SDS011;35079;52.704;13.814;2023-04-19T03:22:35;5.32;;;2.50;;
49241;SDS011;35079;52.704;13.814;2023-04-19T03:25:01;6.68;;;2.67;;
49241;SDS011;35079;52.704;13.814;2023-04-19T03:27:28;8.57;;;2.58;;
49241;SDS011;35079;52.704;13.814;2023-04-19T03:29:54;9.00;;;3.20;;
49241;SDS011;35079;52.704;13.814;2023-04-19T03:32:20;5.05;;;2.58;;
49241;SDS011;35079;52.704;13.814;2023-04-19T03:34:45;5.90;;;2.65;;
49241;SDS011;35079;52.704;13.814;2023-04-19T03:37:11;3.97;;;2.47;;
49241;SDS011;35079;52.704;13.814;2023-04-19T03:39:38;5.88;;;2.63;;
49241;SDS011;35079;52.704;13.814;2023-04-19T03:42:03;5.43;;;2.55;;
49241;SDS011;35079;52.704;13.814;2023-04-19T03:44:32;4.30;;;2.65;;
49241;SDS011;35079;52.704;13.814;2023-04-19T03:46:58;4.72;;;2.65;;
49241;SDS011;35079;52.704;13.814;2023-04-19T03:49:23;5.18;;;2.50;;
49241;SDS011;35079;52.704;13.814;2023-04-19T03:51:49;7.20;;;3.03;;
49241;SDS011;35079;52.704;13.814;2023-04-19T03:54:15;8.48;;;2.58;;
49241;SDS011;35079;52.704;13.814;2023-04-19T03:56:40;3.88;;;2.60;;
49241;SDS011;35079;52.704;13.814;2023-04-19T03:59:06;3.33;;;2.63;;
49241;SDS011;35079;52.704;13.814;2023-04-19T04:01:33;7.80;;;2.97;;
49241;SDS011;35079;52.704;13.814;2023-04-19T04:03:58;9.23;;;3.10;;
49241;SDS011;35079;52.704;13.814;2023-04-19T04:06:24;4.95;;;3.03;;
49241;SDS011;35079;52.704;13.814;2023-04-19T04:08:52;4.60;;;2.72;;
49241;SDS011;35079;52.704;13.814;2023-04-19T04:11:18;6.75;;;2.90;;
49241;SDS011;35079;52.704;13.814;2023-04-19T04:13:43;3.97;;;2.95;;
49241;SDS011;35079;52.704;13.814;2023-04-19T04:16:11;4.32;;;2.67;;
49241;SDS011;35079;52.704;13.814;2023-04-19T04:18:36;6.75;;;3.03;;
49241;SDS011;35079;52.704;13.814;2023-04-19T04:21:02;4.47;;;2.92;;
49241;SDS011;35079;52.704;13.814;2023-04-19T04:23:28;5.80;;;2.50;;
49241;SDS011;35079;52.704;13.814;2023-04-19T04:25:57;7.07;;;2.60;;
49241;SDS011;35079;52.704;13.814;2023-04-19T04:28:26;6.47;;;3.38;;
49241;SDS011;35079;52.704;13.814;2023-04-19T04:30:53;7.28;;;3.22;;
49241;SDS011;35079;52.704;13.814;2023-04-19T04:33:21;5.97;;;2.70;;
49241;SDS011;35079;52.704;13.814;2023-04-19T04:35:51;6.35;;;3.10;;
49241;SDS011;35079;52.704;13.814;2023-04-19T04:38:20;5.03;;;2.85;;
49241;SDS011;35079;52.704;13.814;2023-04-19T04:40:49;5.25;;;2.78;;
49241;SDS011;35079;52.704;13.814;2023-04-19T04:43:17;8.35;;;3.17;;
49241;SDS011;35079;52.704;13.814;2023-04-19T04:45:47;4.60;;;3.00;;
49241;SDS011;35079;52.704;13.814;2023-04-19T04:48:13;6.03;;;3.10;;
49241;SDS011;35079;52.704;13.814;2023-04-19T04:50:38;3.65;;;2.65;;
49241;SDS011;35079;52.704;13.814;2023-04-19T04:53:04;8.18;;;2.70;;
49241;SDS011;35079;52.704;13.814;2023-04-19T04:55:30;4.75;;;2.70;;
49241;SDS011;35079;52.704;13.814;2023-04-19T04:57:56;6.18;;;2.80;;
49241;SDS011;35079;52.704;13.814;2023-04-19T05:00:22;5.38;;;2.42;;
49241;SDS011;35079;52.704;13.814;2023-04-19T05:02:48;5.43;;;2.75;;
49241;SDS011;35079;52.704;13.814;2023-04-19T05:05:13;7.43;;;3.13;;
49241;SDS011;35079;52.704;13.814;2023-04-19T05:07:39;6.25;;;2.80;;
49241;SDS011;35079;52.704;13.814;2023-04-19T05:10:05;7.47;;;2.63;;
49241;SDS011;35079;52.704;13.814;2023-04-19T05:12:31;6.10;;;2.60;;
49241;SDS011;35079;52.704;13.814;2023-04-19T05:14:57;4.45;;;2.53;;
49241;SDS011;35079;52.704;13.814;2023-04-19T05:17:23;6.85;;;2.30;;
49241;SDS011;35079;52.704;13.814;2023-04-19T05:19:49;6.28;;;2.38;;
49241;SDS011;35079;52.704;13.814;2023-04-19T05:22:15;5.60;;;2.65;;
49241;SDS011;35079;52.704;13.814;2023-04-19T05:24:40;3.75;;;2.50;;
49241;SDS011;35079;52.704;13.814;2023-04-19T05:27:06;5.30;;;2.45;;
49241;SDS011;35079;52.704;13.814;2023-04-19T05:29:33;7.32;;;2.30;;
49241;SDS011;35079;52.704;13.814;2023-04-19T05:31:59;7.38;;;2.55;;
49241;SDS011;35079;52.704;13.814;2023-04-19T05:34:25;5.15;;;2.10;;
49241;SDS011;35079;52.704;13.814;2023-04-19T05:36:50;6.82;;;2.33;;
49241;SDS011;35079;52.704;13.814;2023-04-19T05:39:16;7.20;;;2.38;;
49241;SDS011;35079;52.704;13.814;2023-04-19T05:41:42;5.25;;;2.60;;
49241;SDS011;35079;52.704;13.814;2023-04-19T05:44:07;7.18;;;2.50;;
49241;SDS011;35079;52.704;13.814;2023-04-19T05:46:33;5.65;;;2.28;;
49241;SDS011;35079;52.704;13.814;2023-04-19T05:48:59;9.18;;;2.00;;
49241;SDS011;35079;52.704;13.814;2023-04-19T05:51:24;7.47;;;2.22;;
49241;SDS011;35079;52.704;13.814;2023-04-19T05:53:50;4.38;;;2.40;;
49241;SDS011;35079;52.704;13.814;2023-04-19T05:56:17;5.25;;;2.10;;
49241;SDS011;35079;52.704;13.814;2023-04-19T05:58:43;3.38;;;2.10;;
49241;SDS011;35079;52.704;13.814;2023-04-19T06:01:08;4.35;;;2.10;;
49241;SDS011;35079;52.704;13.814;2023-04-19T06:03:34;3.55;;;2.15;;
49241;SDS011;35079;52.704;13.814;2023-04-19T06:05:59;4.10;;;2.13;;
49241;SDS011;35079;52.704;13.814;2023-04-19T06:08:25;6.82;;;2.33;;
49241;SDS011;35079;52.704;13.814;2023-04-19T06:10:51;6.20;;;2.33;;
49241;SDS011;35079;52.704;13.814;2023-04-19T06:13:18;5.07;;;1.98;;
49241;SDS011;35079;52.704;13.814;2023-04-19T06:15:43;6.13;;;2.00;;
49241;SDS011;35079;52.704;13.814;2023-04-19T06:18:10;6.20;;;2.13;;
49241;SDS011;35079;52.704;13.814;2023-04-19T06:20:36;4.40;;;2.15;;
49241;SDS011;35079;52.704;13.814;2023-04-19T06:23:02;4.35;;;1.85;;
49241;SDS011;35079;52.704;13.814;2023-04-19T06:25:28;3.97;;;1.90;;
49241;SDS011;35079;52.704;13.814;2023-04-19T06:27:54;8.68;;;2.25;;
49241;SDS011;35079;52.704;13.814;2023-04-19T06:30:20;6.55;;;2.30;;
49241;SDS011;35079;52.704;13.814;2023-04-19T06:32:45;4.25;;;2.10;;
49241;SDS011;35079;52.704;13.814;2023-04-19T06:35:11;4.10;;;1.90;;
49241;SDS011;35079;52.704;13.814;2023-04-19T06:37:37;5.57;;;2.40;;
49241;SDS011;35079;52.704;13.814;2023-04-19T06:40:02;7.53;;;2.28;;
49241;SDS011;35079;52.704;13.814;2023-04-19T06:42:32;7.95;;;2.53;;
49241;SDS011;35079;52.704;13.814;2023-04-19T06:44:58;4.13;;;2.22;;
49241;SDS011;35079;52.704;13.814;2023-04-19T06:47:25;6.78;;;2.50;;
49241;SDS011;35079;52.704;13.814;2023-04-19T06:49:50;4.50;;;2.15;;
49241;SDS011;35079;52.704;13.814;2023-04-19T06:52:16;4.10;;;2.45;;
49241;SDS011;35079;52.704;13.814;2023-04-19T06:54:45;3.90;;;1.80;;
49241;SDS011;35079;52.704;13.814;2023-04-19T06:57:12;5.18;;;2.00;;
49241;SDS011;35079;52.704;13.814;2023-04-19T06:59:37;4.95;;;2.40;;
49241;SDS011;35079;52.704;13.814;2023-04-19T07:02:03;6.05;;;2.00;;
49241;SDS011;35079;52.704;13.814;2023-04-19T07:04:29;6.65;;;1.90;;
49241;SDS011;35079;52.704;13.814;2023-04-19T07:06:55;5.35;;;2.20;;
49241;SDS011;35079;52.704;13.814;2023-04-19T07:09:20;4.10;;;1.90;;
49241;SDS011;35079;52.704;13.814;2023-04-19T07:11:46;5.07;;;1.90;;
49241;SDS011;35079;52.704;13.814;2023-04-19T07:14:12;6.65;;;2.33;;
49241;SDS011;35079;52.704;13.814;2023-04-19T07:16:38;3.20;;;2.03;;
49241;SDS011;35079;52.704;13.814;2023-04-19T07:19:03;3.92;;;2.28;;
49241;SDS011;35079;52.704;13.814;2023-04-19T07:21:29;7.75;;;2.38;;
49241;SDS011;35079;52.704;13.814;2023-04-19T07:23:57;5.35;;;2.10;;
49241;SDS011;35079;52.704;13.814;2023-04-19T07:26:23;4.38;;;2.10;;
49241;SDS011;35079;52.704;13.814;2023-04-19T07:28:48;3.88;;;2.30;;
49241;SDS011;35079;52.704;13.814;2023-04-19T07:31:17;6.00;;;2.20;;
49241;SDS011;35079;52.704;13.814;2023-04-19T07:33:43;2.72;;;2.33;;
49241;SDS011;35079;52.704;13.814;2023-04-19T07:36:09;5.35;;;2.55;;
49241;SDS011;35079;52.704;13.814;2023-04-19T07:38:35;5.55;;;2.33;;
49241;SDS011;35079;52.704;13.814;2023-04-19T07:41:01;4.47;;;2.40;;
49241;SDS011;35079;52.704;13.814;2023-04-19T07:43:28;4.50;;;2.70;;
49241;SDS011;35079;52.704;13.814;2023-04-19T07:45:54;4.40;;;2.22;;
49241;SDS011;35079;52.704;13.814;2023-04-19T07:48:20;6.60;;;2.38;;
49241;SDS011;35079;52.704;13.814;2023-04-19T07:50:45;5.75;;;2.60;;
49241;SDS011;35079;52.704;13.814;2023-04-19T07:53:11;6.45;;;2.47;;
49241;SDS011;35079;52.704;13.814;2023-04-19T07:55:36;5.15;;;2.47;;
49241;SDS011;35079;52.704;13.814;2023-04-19T07:58:02;8.10;;;2.47;;
49241;SDS011;35079;52.704;13.814;2023-04-19T08:00:27;6.72;;;2.97;;
49241;SDS011;35079;52.704;13.814;2023-04-19T08:02:58;4.88;;;2.67;;
49241;SDS011;35079;52.704;13.814;2023-04-19T08:05:24;8.35;;;2.65;;
49241;SDS011;35079;52.704;13.814;2023-04-19T08:07:51;4.32;;;2.50;;
49241;SDS011;35079;52.704;13.814;2023-04-19T08:10:17;6.50;;;2.67;;
49241;SDS011;35079;52.704;13.814;2023-04-19T08:12:44;3.90;;;2.40;;
49241;SDS011;35079;52.704;13.814;2023-04-19T08:15:10;6.35;;;2.50;;
49241;SDS011;35079;52.704;13.814;2023-04-19T08:17:35;5.93;;;2.75;;
49241;SDS011;35079;52.704;13.814;2023-04-19T08:20:01;7.40;;;2.47;;
49241;SDS011;35079;52.704;13.814;2023-04-19T08:22:27;6.55;;;2.65;;
49241;SDS011;35079;52.704;13.814;2023-04-19T08:24:53;3.42;;;2.65;;
49241;SDS011;35079;52.704;13.814;2023-04-19T08:27:19;4.28;;;2.50;;
49241;SDS011;35079;52.704;13.814;2023-04-19T08:29:45;6.47;;;2.88;;
49241;SDS011;35079;52.704;13.814;2023-04-19T08:32:11;6.53;;;3.00;;
49241;SDS011;35079;52.704;13.814;2023-04-19T08:34:37;4.82;;;2.45;;
49241;SDS011;35079;52.704;13.814;2023-04-19T08:37:03;4.90;;;2.35;;
49241;SDS011;35079;52.704;13.814;2023-04-19T08:39:30;5.15;;;2.50;;
49241;SDS011;35079;52.704;13.814;2023-04-19T08:41:56;5.57;;;2.45;;
49241;SDS011;35079;52.704;13.814;2023-04-19T08:46:57;6.65;;;2.78;;
49241;SDS011;35079;52.704;13.814;2023-04-19T08:49:25;5.40;;;2.58;;
49241;SDS011;35079;52.704;13.814;2023-04-19T08:51:52;4.78;;;2.70;;
49241;SDS011;35079;52.704;13.814;2023-04-19T08:54:19;5.82;;;2.70;;
49241;SDS011;35079;52.704;13.814;2023-04-19T08:56:46;4.00;;;2.42;;
49241;SDS011;35079;52.704;13.814;2023-04-19T08:59:11;6.82;;;2.83;;
49241;SDS011;35079;52.704;13.814;2023-04-19T09:01:38;6.53;;;2.83;;
49241;SDS011;35079;52.704;13.814;2023-04-19T09:04:04;6.50;;;2.92;;
49241;SDS011;35079;52.704;13.814;2023-04-19T09:06:37;6.97;;;3.00;;
49241;SDS011;35079;52.704;13.814;2023-04-19T09:09:18;5.68;;;2.72;;
49241;SDS011;35079;52.704;13.814;2023-04-19T09:11:48;5.93;;;3.03;;
49241;SDS011;35079;52.704;13.814;2023-04-19T09:14:14;6.97;;;3.00;;
49241;SDS011;35079;52.704;13.814;2023-04-19T09:16:41;5.10;;;2.58;;
49241;SDS011;35079;52.704;13.814;2023-04-19T09:19:08;5.93;;;2.88;;
49241;SDS011;35079;52.704;13.814;2023-04-19T09:21:34;6.25;;;2.80;;
49241;SDS011;35079;52.704;13.814;2023-04-19T09:24:00;8.38;;;2.88;;
49241;SDS011;35079;52.704;13.814;2023-04-19T09:26:27;7.07;;;2.88;;
49241;SDS011;35079;52.704;13.814;2023-04-19T09:29:06;4.30;;;2.60;;
49241;SDS011;35079;52.704;13.814;2023-04-19T09:31:33;5.32;;;2.40;;
49241;SDS011;35079;52.704;13.814;2023-04-19T09:34:13;5.85;;;2.63;;
49241;SDS011;35079;52.704;13.814;2023-04-19T09:36:39;7.40;;;2.53;;
49241;SDS011;35079;52.704;13.814;2023-04-19T09:39:05;7.45;;;2.80;;
49241;SDS011;35079;52.704;13.814;2023-04-19T09:41:31;6.65;;;2.92;;
49241;SDS011;35079;52.704;13.814;2023-04-19T09:44:10;6.05;;;2.75;;
49241;SDS011;35079;52.704;13.814;2023-04-19T09:46:39;6.60;;;3.05;;
49241;SDS011;35079;52.704;13.814;2023-04-19T09:51:48;7.40;;;2.80;;
49241;SDS011;35079;52.704;13.814;2023-04-19T09:54:17;8.38;;;2.70;;
49241;SDS011;35079;52.704;13.814;2023-04-19T09:56:44;6.85;;;3.00;;
49241;SDS011;35079;52.704;13.814;2023-04-19T09:59:10;6.13;;;2.80;;
49241;SDS011;35079;52.704;13.814;2023-04-19T10:01:41;5.60;;;2.42;;
49241;SDS011;35079;52.704;13.814;2023-04-19T10:04:18;6.82;;;2.88;;
49241;SDS011;35079;52.704;13.814;2023-04-19T10:06:49;6.10;;;2.65;;
49241;SDS011;35079;52.704;13.814;2023-04-19T10:09:17;8.35;;;3.10;;
49241;SDS011;35079;52.704;13.814;2023-04-19T10:11:50;5.15;;;2.75;;
49241;SDS011;35079;52.704;13.814;2023-04-19T10:14:18;7.18;;;2.80;;
49241;SDS011;35079;52.704;13.814;2023-04-19T10:16:47;6.45;;;2.97;;
49241;SDS011;35079;52.704;13.814;2023-04-19T10:19:14;7.15;;;2.53;;
49241;SDS011;35079;52.704;13.814;2023-04-19T10:21:41;8.50;;;3.28;;
49241;SDS011;35079;52.704;13.814;2023-04-19T10:24:08;5.82;;;3.20;;
49241;SDS011;35079;52.704;13.814;2023-04-19T10:27:10;5.13;;;2.80;;
49241;SDS011;35079;52.704;13.814;2023-04-19T10:32:20;6.65;;;2.90;;
49241;SDS011;35079;52.704;13.814;2023-04-19T10:34:46;7.80;;;3.28;;
49241;SDS011;35079;52.704;13.814;2023-04-19T10:37:15;7.88;;;3.22;;
49241;SDS011;35079;52.704;13.814;2023-04-19T10:39:42;8.15;;;3.17;;
49241;SDS011;35079;52.704;13.814;2023-04-19T10:42:08;5.28;;;2.83;;
49241;SDS011;35079;52.704;13.814;2023-04-19T10:44:34;6.25;;;2.80;;
49241;SDS011;35079;52.704;13.814;2023-04-19T10:47:00;6.40;;;2.80;;
49241;SDS011;35079;52.704;13.814;2023-04-19T10:49:29;7.20;;;2.97;;
49241;SDS011;35079;52.704;13.814;2023-04-19T10:51:55;7.18;;;3.20;;
49241;SDS011;35079;52.704;13.814;2023-04-19T10:59:30;6.60;;;3.50;;
49241;SDS011;35079;52.704;13.814;2023-04-19T11:02:00;8.35;;;3.33;;
49241;SDS011;35079;52.704;13.814;2023-04-19T11:07:03;5.50;;;3.03;;
49241;SDS011;35079;52.704;13.814;2023-04-19T11:09:37;4.45;;;2.85;;
49241;SDS011;35079;52.704;13.814;2023-04-19T11:14:36;6.22;;;2.83;;
49241;SDS011;35079;52.704;13.814;2023-04-19T11:17:14;8.00;;;3.13;;
49241;SDS011;35079;52.704;13.814;2023-04-19T11:22:31;6.70;;;2.60;;
49241;SDS011;35079;52.704;13.814;2023-04-19T11:25:04;4.95;;;2.90;;
49241;SDS011;35079;52.704;13.814;2023-04-19T11:27:31;6.35;;;2.95;;
49241;SDS011;35079;52.704;13.814;2023-04-19T11:30:04;5.07;;;3.03;;
49241;SDS011;35079;52.704;13.814;2023-04-19T11:32:31;6.13;;;2.95;;
49241;SDS011;35079;52.704;13.814;2023-04-19T11:35:02;7.15;;;3.03;;
49241;SDS011;35079;52.704;13.814;2023-04-19T11:37:32;5.80;;;3.13;;
49241;SDS011;35079;52.704;13.814;2023-04-19T11:39:59;7.80;;;3.10;;
49241;SDS011;35079;52.704;13.814;2023-04-19T11:42:24;6.10;;;3.00;;
49241;SDS011;35079;52.704;13.814;2023-04-19T11:44:50;8.13;;;3.10;;
49241;SDS011;35079;52.704;13.814;2023-04-19T11:47:17;7.05;;;3.35;;
49241;SDS011;35079;52.704;13.814;2023-04-19T11:49:44;5.53;;;2.88;;
49241;SDS011;35079;52.704;13.814;2023-04-19T11:52:10;5.80;;;3.08;;
49241;SDS011;35079;52.704;13.814;2023-04-19T11:54:35;9.00;;;2.75;;
49241;SDS011;35079;52.704;13.814;2023-04-19T11:59:28;12.00;;;3.25;;
49241;SDS011;35079;52.704;13.814;2023-04-19T12:01:55;7.18;;;3.03;;
49241;SDS011;35079;52.704;13.814;2023-04-19T12:04:28;5.90;;;2.97;;
49241;SDS011;35079;52.704;13.814;2023-04-19T12:06:57;7.13;;;3.10;;
49241;SDS011;35079;52.704;13.814;2023-04-19T12:09:23;11.00;;;3.53;;
49241;SDS011;35079;52.704;13.814;2023-04-19T12:11:49;8.32;;;3.58;;
49241;SDS011;35079;52.704;13.814;2023-04-19T12:14:16;6.15;;;3.50;;
49241;SDS011;35079;52.704;13.814;2023-04-19T12:16:45;8.93;;;3.58;;
49241;SDS011;35079;52.704;13.814;2023-04-19T12:19:26;7.55;;;2.85;;
49241;SDS011;35079;52.704;13.814;2023-04-19T12:22:06;8.68;;;3.13;;
49241;SDS011;35079;52.704;13.814;2023-04-19T12:24:33;5.53;;;2.75;;
49241;SDS011;35079;52.704;13.814;2023-04-19T12:26:58;8.20;;;3.35;;
49241;SDS011;35079;52.704;13.814;2023-04-19T12:29:25;4.80;;;2.75;;
49241;SDS011;35079;52.704;13.814;2023-04-19T12:31:51;6.47;;;3.05;;
49241;SDS011;35079;52.704;13.814;2023-04-19T12:34:17;9.32;;;3.20;;
49241;SDS011;35079;52.704;13.814;2023-04-19T12:36:42;5.32;;;2.72;;
49241;SDS011;35079;52.704;13.814;2023-04-19T12:39:08;4.38;;;2.83;;
49241;SDS011;35079;52.704;13.814;2023-04-19T12:41:33;4.53;;;2.95;;
49241;SDS011;35079;52.704;13.814;2023-04-19T12:43:59;5.72;;;2.97;;
49241;SDS011;35079;52.704;13.814;2023-04-19T12:46:25;7.00;;;2.83;;
49241;SDS011;35079;52.704;13.814;2023-04-19T12:48:50;8.50;;;3.05;;
49241;SDS011;35079;52.704;13.814;2023-04-19T12:51:16;5.47;;;2.70;;
49241;SDS011;35079;52.704;13.814;2023-04-19T12:53:46;5.03;;;2.90;;
49241;SDS011;35079;52.704;13.814;2023-04-19T12:56:13;6.18;;;3.10;;
49241;SDS011;35079;52.704;13.814;2023-04-19T12:58:39;7.35;;;3.17;;
49241;SDS011;35079;52.704;13.814;2023-04-19T13:01:05;5.38;;;2.97;;
49241;SDS011;35079;52.704;13.814;2023-04-19T13:03:31;6.57;;;3.40;;
49241;SDS011;35079;52.704;13.814;2023-04-19T13:06:00;11.10;;;3.50;;
49241;SDS011;35079;52.704;13.814;2023-04-19T13:08:26;7.28;;;3.40;;
49241;SDS011;35079;52.704;13.814;2023-04-19T13:10:52;9.60;;;3.28;;
49241;SDS011;35079;52.704;13.814;2023-04-19T13:13:19;7.13;;;3.13;;
49241;SDS011;35079;52.704;13.814;2023-04-19T13:15:44;6.35;;;3.45;;
49241;SDS011;35079;52.704;13.814;2023-04-19T13:18:10;6.40;;;3.22;;
49241;SDS011;35079;52.704;13.814;2023-04-19T13:20:36;6.22;;;3.38;;
49241;SDS011;35079;52.704;13.814;2023-04-19T13:23:02;10.80;;;3.63;;
49241;SDS011;35079;52.704;13.814;2023-04-19T13:25:27;11.27;;;4.22;;
49241;SDS011;35079;52.704;13.814;2023-04-19T13:27:53;8.68;;;3.20;;
49241;SDS011;35079;52.704;13.814;2023-04-19T13:30:18;6.28;;;3.47;;
49241;SDS011;35079;52.704;13.814;2023-04-19T13:32:44;7.55;;;3.05;;
49241;SDS011;35079;52.704;13.814;2023-04-19T13:35:10;6.65;;;3.38;;
49241;SDS011;35079;52.704;13.814;2023-04-19T13:37:35;10.57;;;4.10;;
49241;SDS011;35079;52.704;13.814;2023-04-19T13:40:01;9.73;;;3.70;;
49241;SDS011;35079;52.704;13.814;2023-04-19T13:42:28;7.47;;;3.53;;
49241;SDS011;35079;52.704;13.814;2023-04-19T13:44:54;11.57;;;4.00;;
49241;SDS011;35079;52.704;13.814;2023-04-19T13:47:20;8.52;;;3.75;;
49241;SDS011;35079;52.704;13.814;2023-04-19T13:49:45;11.15;;;4.65;;
49241;SDS011;35079;52.704;13.814;2023-04-19T13:52:16;9.88;;;4.22;;
49241;SDS011;35079;52.704;13.814;2023-04-19T13:54:42;11.40;;;4.10;;
49241;SDS011;35079;52.704;13.814;2023-04-19T13:57:08;10.18;;;3.83;;
49241;SDS011;35079;52.704;13.814;2023-04-19T13:59:33;8.23;;;3.72;;
49241;SDS011;35079;52.704;13.814;2023-04-19T14:01:59;8.38;;;3.83;;
49241;SDS011;35079;52.704;13.814;2023-04-19T14:04:27;8.85;;;4.13;;
49241;SDS011;35079;52.704;13.814;2023-04-19T14:06:53;8.02;;;3.53;;
49241;SDS011;35079;52.704;13.814;2023-04-19T14:09:18;9.65;;;3.72;;
49241;SDS011;35079;52.704;13.814;2023-04-19T14:11:44;9.68;;;3.75;;
49241;SDS011;35079;52.704;13.814;2023-04-19T14:14:10;9.48;;;3.50;;
49241;SDS011;35079;52.704;13.814;2023-04-19T14:16:35;7.25;;;3.88;;
49241;SDS011;35079;52.704;13.814;2023-04-19T14:19:01;10.95;;;4.28;;
49241;SDS011;35079;52.704;13.814;2023-04-19T14:21:27;8.27;;;3.83;;
49241;SDS011;35079;52.704;13.814;2023-04-19T14:23:55;11.93;;;3.70;;
49241;SDS011;35079;52.704;13.814;2023-04-19T14:26:21;8.02;;;4.03;;
49241;SDS011;35079;52.704;13.814;2023-04-19T14:28:46;10.68;;;4.80;;
49241;SDS011;35079;52.704;13.814;2023-04-19T14:31:12;10.45;;;4.30;;
49241;SDS011;35079;52.704;13.814;2023-04-19T14:33:38;9.65;;;4.05;;
49241;SDS011;35079;52.704;13.814;2023-04-19T14:36:03;6.45;;;3.85;;
49241;SDS011;35079;52.704;13.814;2023-04-19T14:38:29;7.68;;;4.00;;
49241;SDS011;35079;52.704;13.814;2023-04-19T14:40:55;4.85;;;3.70;;
49241;SDS011;35079;52.704;13.814;2023-04-19T14:43:20;7.65;;;4.30;;
49241;SDS011;35079;52.704;13.814;2023-04-19T14:45:49;13.27;;;5.38;;
49241;SDS011;35079;52.704;13.814;2023-04-19T14:48:15;9.80;;;4.80;;
49241;SDS011;35079;52.704;13.814;2023-04-19T14:50:41;14.68;;;5.40;;
49241;SDS011;35079;52.704;13.814;2023-04-19T14:53:07;11.32;;;5.43;;